Time;durP1;ratioP1;P1;durP2;ratioP2;P2;SDS_P1;SDS_P2;PMS_P1;PMS_P2;Temp;Humidity;BMP_temperature;BMP_pressure;BME280_temperature;BME280_humidity;BME280_pressure;Samples;Min_cycle;Max_cycle;Signal;HPM_P1;HPM_P2
2022/09/19 00:02:22;;;;;;;17.00;2.10;;;;;;;;;;5031246;28;20246;-68
2022/09/19 00:04:48;;;;;;;12.68;1.80;;;;;;;;;;5032273;28;20604;-68
2022/09/19 00:07:13;;;;;;;12.88;2.13;;;;;;;;;;5030733;28;20223;-68
2022/09/19 00:09:38;;;;;;;15.10;2.10;;;;;;;;;;5032135;28;20227;-68
2022/09/19 00:12:04;;;;;;;14.18;2.10;;;;;;;;;;5031500;28;20246;-68
2022/09/19 00:14:30;;;;;;;12.43;2.00;;;;;;;;;;5031344;28;20592;-68
2022/09/19 00:16:57;;;;;;;17.17;2.15;;;;;;;;;;5030331;28;20203;-68
2022/09/19 00:19:23;;;;;;;12.32;2.00;;;;;;;;;;5031423;28;20243;-67
2022/09/19 00:21:48;;;;;;;16.23;2.72;;;;;;;;;;5031309;28;20617;-69
2022/09/19 00:26:58;;;;;;;15.23;1.90;;;;;;;;;;5031010;28;20222;-68
2022/09/19 00:29:24;;;;;;;15.77;2.00;;;;;;;;;;5033642;28;20613;-68
2022/09/19 00:31:50;;;;;;;12.57;1.67;;;;;;;;;;5034204;28;20211;-68
2022/09/19 00:34:17;;;;;;;15.25;2.08;;;;;;;;;;5035279;28;20216;-67
2022/09/19 00:36:42;;;;;;;19.08;2.35;;;;;;;;;;5035430;28;20210;-66
2022/09/19 00:39:08;;;;;;;18.73;2.05;;;;;;;;;;5033461;28;20216;-68
2022/09/19 00:41:33;;;;;;;13.13;1.58;;;;;;;;;;5034432;28;20208;-67
2022/09/19 00:44:00;;;;;;;15.02;3.17;;;;;;;;;;5034885;28;20761;-68
2022/09/19 00:46:27;;;;;;;13.15;1.80;;;;;;;;;;5033581;28;20310;-69
2022/09/19 00:48:53;;;;;;;11.75;2.08;;;;;;;;;;5034151;28;20204;-67
2022/09/19 00:51:20;;;;;;;15.10;2.22;;;;;;;;;;5035719;28;20761;-68
2022/09/19 00:53:45;;;;;;;13.32;2.17;;;;;;;;;;5053647;28;20203;-68
2022/09/19 00:56:11;;;;;;;10.52;2.28;;;;;;;;;;5053986;28;20599;-67
2022/09/19 00:58:38;;;;;;;10.35;2.58;;;;;;;;;;5033717;28;20211;-68
2022/09/19 01:01:03;;;;;;;12.95;2.50;;;;;;;;;;5033328;28;20212;-68
2022/09/19 01:03:29;;;;;;;14.57;1.85;;;;;;;;;;5033858;28;20217;-69
2022/09/19 01:05:59;;;;;;;15.55;2.05;;;;;;;;;;5033611;28;20686;-68
2022/09/19 01:08:28;;;;;;;18.33;2.22;;;;;;;;;;5033023;28;20613;-69
2022/09/19 01:10:54;;;;;;;17.17;2.13;;;;;;;;;;5033959;28;20216;-68
2022/09/19 01:13:21;;;;;;;16.45;2.53;;;;;;;;;;5033993;28;20222;-68
2022/09/19 01:15:53;;;;;;;16.85;2.15;;;;;;;;;;5033261;28;20682;-67
2022/09/19 01:18:21;;;;;;;12.65;1.98;;;;;;;;;;5033108;28;20215;-68
2022/09/19 01:23:49;;;;;;;13.38;2.35;;;;;;;;;;5033458;28;20214;-68
2022/09/19 01:26:22;;;;;;;11.85;1.88;;;;;;;;;;5033961;28;20228;-68
2022/09/19 01:28:47;;;;;;;16.92;3.00;;;;;;;;;;5032999;28;20265;-68
2022/09/19 01:31:18;;;;;;;13.90;2.53;;;;;;;;;;5033088;28;20215;-68
2022/09/19 01:33:47;;;;;;;12.63;2.10;;;;;;;;;;5044210;28;20219;-68
2022/09/19 01:36:14;;;;;;;12.95;1.92;;;;;;;;;;5052317;28;20572;-68
2022/09/19 01:38:40;;;;;;;15.70;1.77;;;;;;;;;;5052384;28;20215;-68
2022/09/19 01:41:08;;;;;;;10.93;1.80;;;;;;;;;;5051421;28;20213;-68
2022/09/19 01:43:33;;;;;;;10.48;2.25;;;;;;;;;;5052450;28;20243;-68
2022/09/19 01:46:00;;;;;;;24.48;2.92;;;;;;;;;;5052027;28;20308;-68
2022/09/19 01:48:32;;;;;;;12.80;2.20;;;;;;;;;;5052037;28;20650;-69
2022/09/19 01:51:05;;;;;;;17.63;2.65;;;;;;;;;;5053805;28;20281;-68
2022/09/19 01:53:46;;;;;;;15.85;2.50;;;;;;;;;;5013897;28;20585;-68
2022/09/19 01:56:15;;;;;;;12.80;2.40;;;;;;;;;;5013701;28;20248;-68
2022/09/19 01:58:46;;;;;;;13.98;1.95;;;;;;;;;;5028354;28;20209;-68
2022/09/19 02:01:19;;;;;;;16.27;2.50;;;;;;;;;;5013499;28;20314;-70
2022/09/19 02:03:45;;;;;;;12.40;2.10;;;;;;;;;;5022330;28;20212;-68
2022/09/19 02:06:10;;;;;;;12.20;2.00;;;;;;;;;;5007923;28;20239;-68
2022/09/19 02:08:35;;;;;;;15.00;2.20;;;;;;;;;;5004607;28;20220;-68
2022/09/19 02:11:03;;;;;;;14.13;1.95;;;;;;;;;;5007974;28;20230;-68
2022/09/19 02:13:29;;;;;;;14.30;2.30;;;;;;;;;;5022564;28;20748;-68
2022/09/19 02:15:56;;;;;;;14.90;2.10;;;;;;;;;;5023473;28;20528;-68
2022/09/19 02:18:30;;;;;;;16.40;2.20;;;;;;;;;;4994658;28;20616;-68
2022/09/19 02:20:58;;;;;;;12.23;2.05;;;;;;;;;;4994100;28;20212;-68
2022/09/19 02:23:25;;;;;;;14.02;2.13;;;;;;;;;;5017263;28;20212;-68
2022/09/19 02:25:51;;;;;;;11.68;2.00;;;;;;;;;;5033001;28;20223;-67
2022/09/19 02:28:18;;;;;;;9.88;1.63;;;;;;;;;;5015556;28;20215;-68
2022/09/19 02:30:44;;;;;;;12.50;2.17;;;;;;;;;;5031468;28;20315;-68
2022/09/19 02:33:10;;;;;;;8.95;1.92;;;;;;;;;;5008457;28;20755;-69
2022/09/19 02:35:38;;;;;;;9.98;2.00;;;;;;;;;;4996133;28;20227;-68
2022/09/19 02:38:08;;;;;;;11.13;1.95;;;;;;;;;;5009409;28;20504;-68
2022/09/19 02:40:39;;;;;;;12.63;2.15;;;;;;;;;;5024428;28;20403;-68
2022/09/19 02:43:07;;;;;;;12.73;1.90;;;;;;;;;;5024145;28;20234;-69
2022/09/19 02:45:34;;;;;;;10.85;2.10;;;;;;;;;;5030491;28;20310;-68
2022/09/19 02:48:01;;;;;;;13.15;2.03;;;;;;;;;;5031826;28;20212;-68
2022/09/19 02:50:26;;;;;;;13.30;2.17;;;;;;;;;;5016625;28;20257;-68
2022/09/19 02:52:52;;;;;;;12.70;2.25;;;;;;;;;;5002602;28;20221;-68
2022/09/19 02:55:19;;;;;;;12.00;2.15;;;;;;;;;;5011872;28;20224;-68
2022/09/19 02:57:45;;;;;;;14.65;2.05;;;;;;;;;;5019473;28;20215;-69
2022/09/19 03:00:12;;;;;;;14.35;1.95;;;;;;;;;;5026804;28;20219;-68
2022/09/19 03:02:38;;;;;;;12.57;2.30;;;;;;;;;;5009018;28;20195;-69
2022/09/19 03:05:06;;;;;;;14.13;2.80;;;;;;;;;;5023819;28;20877;-69
2022/09/19 03:07:36;;;;;;;13.85;1.88;;;;;;;;;;5028918;28;20200;-69
2022/09/19 03:10:04;;;;;;;16.33;1.85;;;;;;;;;;5015040;28;20864;-69
2022/09/19 03:12:31;;;;;;;10.88;1.88;;;;;;;;;;5013005;28;20208;-68
2022/09/19 03:14:58;;;;;;;14.57;2.35;;;;;;;;;;5030833;28;20250;-68
2022/09/19 03:17:25;;;;;;;13.07;2.22;;;;;;;;;;5006594;28;20205;-67
2022/09/19 03:19:50;;;;;;;12.88;1.92;;;;;;;;;;5030858;28;20215;-67
2022/09/19 03:22:16;;;;;;;11.65;1.90;;;;;;;;;;5012706;28;20219;-67
2022/09/19 03:24:41;;;;;;;12.48;2.40;;;;;;;;;;5024435;28;20215;-67
2022/09/19 03:27:06;;;;;;;13.23;1.85;;;;;;;;;;5009111;28;20214;-67
2022/09/19 03:29:33;;;;;;;8.25;1.52;;;;;;;;;;5011722;28;20212;-67
2022/09/19 03:31:58;;;;;;;15.00;2.03;;;;;;;;;;5031194;28;20294;-67
2022/09/19 03:34:23;;;;;;;19.83;2.65;;;;;;;;;;4998099;28;20729;-67
2022/09/19 03:36:49;;;;;;;17.73;2.28;;;;;;;;;;4996311;28;20294;-68
2022/09/19 03:39:14;;;;;;;16.52;2.00;;;;;;;;;;4995809;28;20220;-68
2022/09/19 03:41:39;;;;;;;13.57;1.80;;;;;;;;;;4997627;28;20239;-67
2022/09/19 03:44:05;;;;;;;17.23;2.88;;;;;;;;;;4995383;28;20240;-67
2022/09/19 03:46:31;;;;;;;19.02;2.30;;;;;;;;;;5009690;28;20844;-67
2022/09/19 03:48:56;;;;;;;15.15;2.15;;;;;;;;;;5009691;28;20500;-67
2022/09/19 03:51:21;;;;;;;13.15;1.83;;;;;;;;;;5006277;28;20766;-67
2022/09/19 03:53:47;;;;;;;14.18;1.67;;;;;;;;;;4996549;28;20543;-67
2022/09/19 03:56:13;;;;;;;11.27;2.20;;;;;;;;;;4996551;28;20790;-67
2022/09/19 03:58:39;;;;;;;15.27;2.22;;;;;;;;;;4996283;28;20296;-67
2022/09/19 04:01:06;;;;;;;13.07;1.83;;;;;;;;;;4995913;28;20235;-67
2022/09/19 04:03:31;;;;;;;10.18;1.75;;;;;;;;;;5017033;28;20211;-67
2022/09/19 04:05:56;;;;;;;8.40;1.75;;;;;;;;;;5018443;28;20258;-67
2022/09/19 04:08:22;;;;;;;12.07;1.80;;;;;;;;;;4995586;28;20215;-67
2022/09/19 04:10:47;;;;;;;11.05;1.95;;;;;;;;;;4998246;28;20277;-68
2022/09/19 04:13:13;;;;;;;11.10;2.00;;;;;;;;;;5011782;28;20480;-67
2022/09/19 04:15:38;;;;;;;14.95;2.47;;;;;;;;;;5017022;28;20654;-67
2022/09/19 04:18:04;;;;;;;11.90;2.13;;;;;;;;;;5026421;28;20730;-67
2022/09/19 04:20:30;;;;;;;13.70;1.80;;;;;;;;;;5020709;28;20223;-67
2022/09/19 04:22:59;;;;;;;12.63;2.63;;;;;;;;;;5025256;28;20570;-67
2022/09/19 04:25:25;;;;;;;14.90;2.20;;;;;;;;;;5025299;28;20229;-67
2022/09/19 04:27:52;;;;;;;15.40;2.05;;;;;;;;;;5040474;28;20207;-67
2022/09/19 04:30:22;;;;;;;13.98;1.90;;;;;;;;;;5021768;28;20216;-68
2022/09/19 04:32:48;;;;;;;12.25;1.77;;;;;;;;;;4999226;28;20229;-68
2022/09/19 04:35:13;;;;;;;11.70;1.70;;;;;;;;;;4992360;28;20695;-67
2022/09/19 04:37:38;;;;;;;11.38;1.83;;;;;;;;;;4996388;28;20223;-68
2022/09/19 04:40:04;;;;;;;18.27;2.45;;;;;;;;;;5014229;28;20243;-67
2022/09/19 04:42:32;;;;;;;11.75;1.98;;;;;;;;;;5019338;28;20579;-67
2022/09/19 04:44:57;;;;;;;13.50;2.13;;;;;;;;;;5018943;28;20366;-67
2022/09/19 04:47:23;;;;;;;15.45;1.95;;;;;;;;;;5017810;28;20220;-67
2022/09/19 04:49:48;;;;;;;14.30;2.13;;;;;;;;;;5019431;28;20215;-67
2022/09/19 04:52:13;;;;;;;17.55;2.05;;;;;;;;;;5008021;28;20336;-66
2022/09/19 04:54:39;;;;;;;13.38;2.33;;;;;;;;;;5012221;28;20636;-67
2022/09/19 04:57:05;;;;;;;10.98;1.83;;;;;;;;;;5019832;28;20694;-66
2022/09/19 04:59:31;;;;;;;11.63;1.77;;;;;;;;;;5012979;28;20748;-68
2022/09/19 05:01:58;;;;;;;16.48;2.05;;;;;;;;;;5018077;28;20204;-67
2022/09/19 05:04:24;;;;;;;10.57;2.03;;;;;;;;;;5018582;28;20310;-67
2022/09/19 05:06:51;;;;;;;14.50;2.25;;;;;;;;;;5018767;28;20936;-70
2022/09/19 05:09:16;;;;;;;12.63;1.75;;;;;;;;;;5017075;28;20270;-68
2022/09/19 05:11:43;;;;;;;9.73;1.48;;;;;;;;;;5006316;28;20220;-65
2022/09/19 05:14:09;;;;;;;14.77;2.58;;;;;;;;;;4997033;28;20482;-67
2022/09/19 05:16:34;;;;;;;11.68;1.90;;;;;;;;;;4993020;28;20221;-67
2022/09/19 05:19:00;;;;;;;11.18;1.58;;;;;;;;;;4992730;28;20463;-66
2022/09/19 05:21:26;;;;;;;11.40;2.63;;;;;;;;;;4991598;28;20309;-66
2022/09/19 05:23:51;;;;;;;12.38;1.80;;;;;;;;;;4997068;28;20209;-66
2022/09/19 05:26:17;;;;;;;12.93;1.58;;;;;;;;;;4998648;28;20238;-67
2022/09/19 05:28:44;;;;;;;11.27;1.98;;;;;;;;;;4998194;28;20208;-69
2022/09/19 05:31:10;;;;;;;15.98;1.85;;;;;;;;;;4998680;28;20282;-67
2022/09/19 05:33:36;;;;;;;11.02;1.55;;;;;;;;;;4998290;28;20209;-67
2022/09/19 05:36:01;;;;;;;14.95;1.58;;;;;;;;;;4997865;28;20252;-67
2022/09/19 05:38:27;;;;;;;10.43;1.67;;;;;;;;;;4995322;28;20287;-66
2022/09/19 05:40:53;;;;;;;15.02;2.53;;;;;;;;;;4992380;28;20205;-66
2022/09/19 05:43:18;;;;;;;11.30;1.85;;;;;;;;;;4991468;28;20592;-66
2022/09/19 05:45:44;;;;;;;9.45;1.67;;;;;;;;;;4993675;28;20766;-66
2022/09/19 05:48:09;;;;;;;16.40;2.65;;;;;;;;;;4997792;28;20686;-65
2022/09/19 05:50:34;;;;;;;11.57;1.85;;;;;;;;;;4997870;28;20524;-67
2022/09/19 05:55:43;;;;;;;10.55;1.50;;;;;;;;;;4998534;28;20258;-66
2022/09/19 05:58:09;;;;;;;12.98;2.55;;;;;;;;;;4997593;28;20220;-66
2022/09/19 06:00:36;;;;;;;10.90;1.80;;;;;;;;;;4996590;28;20435;-69
2022/09/19 06:03:01;;;;;;;11.10;1.50;;;;;;;;;;4991759;28;20208;-66
2022/09/19 06:05:28;;;;;;;12.27;1.80;;;;;;;;;;4992978;28;20247;-72
2022/09/19 06:07:56;;;;;;;14.20;2.03;;;;;;;;;;5008551;28;20661;-65
2022/09/19 06:10:21;;;;;;;8.70;1.90;;;;;;;;;;4998843;28;20247;-66
2022/09/19 06:12:46;;;;;;;17.23;2.08;;;;;;;;;;5031610;28;20703;-66
2022/09/19 06:15:12;;;;;;;11.18;1.90;;;;;;;;;;5017768;28;20950;-67
2022/09/19 06:17:38;;;;;;;14.48;1.73;;;;;;;;;;5005433;28;20216;-68
2022/09/19 06:20:03;;;;;;;10.40;1.48;;;;;;;;;;4997860;28;20606;-70
2022/09/19 06:22:29;;;;;;;8.75;1.52;;;;;;;;;;4997943;28;20205;-68
2022/09/19 06:24:54;;;;;;;7.82;1.63;;;;;;;;;;5010603;28;20680;-68
2022/09/19 06:27:20;;;;;;;10.93;2.47;;;;;;;;;;5009763;28;20325;-67
2022/09/19 06:29:46;;;;;;;12.80;2.03;;;;;;;;;;5010825;28;20305;-68
2022/09/19 06:32:11;;;;;;;10.30;1.70;;;;;;;;;;5016472;28;20326;-69
2022/09/19 06:34:37;;;;;;;11.55;2.10;;;;;;;;;;4999462;28;20426;-69
2022/09/19 06:37:02;;;;;;;8.40;1.50;;;;;;;;;;4997473;28;20216;-69
2022/09/19 06:39:28;;;;;;;10.90;1.88;;;;;;;;;;4997715;28;20228;-68
2022/09/19 06:41:54;;;;;;;11.75;1.67;;;;;;;;;;4997363;28;20204;-69
2022/09/19 06:44:20;;;;;;;11.70;1.92;;;;;;;;;;5016592;28;20231;-69
2022/09/19 06:46:45;;;;;;;12.27;1.95;;;;;;;;;;5012010;28;20247;-69
2022/09/19 06:49:10;;;;;;;10.45;2.42;;;;;;;;;;5010064;28;20351;-68
2022/09/19 06:51:36;;;;;;;12.35;1.60;;;;;;;;;;5006070;28;20422;-70
2022/09/19 06:54:01;;;;;;;10.30;1.88;;;;;;;;;;5013963;28;20412;-69
2022/09/19 06:56:26;;;;;;;14.75;2.28;;;;;;;;;;5015063;28;20268;-69
2022/09/19 06:58:52;;;;;;;9.82;2.08;;;;;;;;;;4997459;28;20526;-70
2022/09/19 07:01:17;;;;;;;11.43;1.60;;;;;;;;;;5016018;28;20597;-66
2022/09/19 07:03:42;;;;;;;9.15;1.73;;;;;;;;;;5007060;28;20219;-68
2022/09/19 07:06:08;;;;;;;11.77;1.70;;;;;;;;;;5007608;28;20273;-66
2022/09/19 07:08:33;;;;;;;12.43;2.13;;;;;;;;;;5006826;28;20270;-66
2022/09/19 07:10:58;;;;;;;11.35;1.70;;;;;;;;;;5007331;28;20224;-69
2022/09/19 07:13:24;;;;;;;10.48;1.70;;;;;;;;;;5007178;28;20212;-70
2022/09/19 07:15:49;;;;;;;9.30;1.50;;;;;;;;;;5004949;28;20235;-70
2022/09/19 07:18:14;;;;;;;11.52;1.92;;;;;;;;;;5021831;28;20250;-70
2022/09/19 07:20:40;;;;;;;8.35;1.60;;;;;;;;;;5027105;28;20259;-67
2022/09/19 07:23:06;;;;;;;10.52;1.98;;;;;;;;;;5025761;28;20890;-69
2022/09/19 07:25:32;;;;;;;16.83;2.08;;;;;;;;;;5026560;28;20724;-70
2022/09/19 07:27:58;;;;;;;11.75;1.88;;;;;;;;;;5026773;28;20208;-68
2022/09/19 07:30:24;;;;;;;10.93;1.67;;;;;;;;;;5023929;28;20261;-69
2022/09/19 07:32:49;;;;;;;10.25;1.52;;;;;;;;;;5025238;28;20196;-70
2022/09/19 07:35:14;;;;;;;8.07;1.75;;;;;;;;;;5026159;28;20215;-69
2022/09/19 07:37:40;;;;;;;8.07;1.40;;;;;;;;;;5026235;28;20200;-71
2022/09/19 07:40:05;;;;;;;8.95;1.40;;;;;;;;;;5030214;28;20273;-70
2022/09/19 07:42:30;;;;;;;10.70;1.67;;;;;;;;;;5030533;28;20658;-70
2022/09/19 07:44:56;;;;;;;11.70;2.00;;;;;;;;;;5029853;28;20254;-70
2022/09/19 07:47:27;;;;;;;13.07;1.98;;;;;;;;;;5030340;28;20204;-70
2022/09/19 07:49:54;;;;;;;9.90;2.30;;;;;;;;;;5035574;28;20235;-70
2022/09/19 07:52:19;;;;;;;7.85;2.05;;;;;;;;;;5046325;28;20213;-74
2022/09/19 07:54:45;;;;;;;16.23;3.20;;;;;;;;;;5034202;28;20219;-75
2022/09/19 07:57:10;;;;;;;13.20;3.07;;;;;;;;;;5028418;28;20426;-74
2022/09/19 07:59:35;;;;;;;14.45;3.85;;;;;;;;;;5030394;28;20552;-74
2022/09/19 08:02:00;;;;;;;12.00;2.45;;;;;;;;;;5019304;28;20224;-75
2022/09/19 08:04:27;;;;;;;14.55;2.90;;;;;;;;;;5033704;28;20272;-78
2022/09/19 08:06:52;;;;;;;9.70;2.05;;;;;;;;;;5031020;28;20235;-80
2022/09/19 08:09:18;;;;;;;11.38;2.22;;;;;;;;;;5030054;28;20211;-72
2022/09/19 08:11:43;;;;;;;10.13;1.75;;;;;;;;;;5016885;28;20203;-70
2022/09/19 08:14:09;;;;;;;17.48;5.13;;;;;;;;;;5022582;28;20243;-76
2022/09/19 08:16:34;;;;;;;11.48;2.25;;;;;;;;;;5027612;28;20303;-75
2022/09/19 08:18:59;;;;;;;12.85;2.88;;;;;;;;;;5030001;28;20214;-77
2022/09/19 08:21:25;;;;;;;9.98;2.25;;;;;;;;;;5029019;28;20963;-79
2022/09/19 08:23:50;;;;;;;9.43;1.65;;;;;;;;;;5029804;28;20523;-76
2022/09/19 08:26:16;;;;;;;7.47;1.92;;;;;;;;;;5028830;28;20223;-79
2022/09/19 08:28:42;;;;;;;8.43;1.60;;;;;;;;;;5029792;28;20215;-79
2022/09/19 08:31:07;;;;;;;10.00;1.73;;;;;;;;;;5029470;28;20223;-81
2022/09/19 08:33:32;;;;;;;7.35;1.50;;;;;;;;;;5029099;28;20204;-80
2022/09/19 08:35:58;;;;;;;8.77;1.92;;;;;;;;;;5028704;28;20204;-79
2022/09/19 08:38:23;;;;;;;11.55;1.73;;;;;;;;;;5029013;28;20565;-80
2022/09/19 08:40:55;;;;;;;12.45;2.20;;;;;;;;;;5029395;28;20211;-83
2022/09/19 08:43:21;;;;;;;11.75;1.73;;;;;;;;;;5027482;28;21349;-82
2022/09/19 08:45:48;;;;;;;10.80;1.63;;;;;;;;;;5029505;28;20224;-82
2022/09/19 08:48:16;;;;;;;10.07;1.88;;;;;;;;;;5028394;28;20220;-80
2022/09/19 08:50:42;;;;;;;8.38;2.20;;;;;;;;;;5028172;28;20216;-82
2022/09/19 08:53:10;;;;;;;8.73;1.50;;;;;;;;;;5026882;28;20212;-79
2022/09/19 08:55:35;;;;;;;11.93;1.42;;;;;;;;;;5027849;28;20219;-79
2022/09/19 08:58:01;;;;;;;10.55;1.88;;;;;;;;;;5029402;28;20200;-79
2022/09/19 09:00:30;;;;;;;9.18;1.52;;;;;;;;;;5027005;28;20742;-80
2022/09/19 09:03:03;;;;;;;6.80;1.58;;;;;;;;;;5028133;28;20208;-82
2022/09/19 09:05:31;;;;;;;10.77;1.63;;;;;;;;;;5027253;28;20239;-82
2022/09/19 09:08:01;;;;;;;8.38;1.60;;;;;;;;;;5027896;28;20886;-82
2022/09/19 09:10:32;;;;;;;8.13;1.73;;;;;;;;;;5027723;28;20204;-83
2022/09/19 09:13:01;;;;;;;13.77;2.10;;;;;;;;;;5032916;28;20216;-79
2022/09/19 09:15:36;;;;;;;10.63;1.65;;;;;;;;;;5010244;28;20690;-79
2022/09/19 09:18:14;;;;;;;8.98;1.73;;;;;;;;;;5027320;28;20286;-80
2022/09/19 09:20:41;;;;;;;6.72;1.58;;;;;;;;;;5027807;28;20231;-82
2022/09/19 09:23:14;;;;;;;11.90;1.80;;;;;;;;;;5025872;28;20219;-81
2022/09/19 09:25:39;;;;;;;13.27;1.77;;;;;;;;;;5027480;28;20216;-80
2022/09/19 09:28:05;;;;;;;8.20;1.42;;;;;;;;;;5026599;28;20223;-81
2022/09/19 09:30:31;;;;;;;12.98;2.92;;;;;;;;;;5028105;28;20212;-66
2022/09/19 09:32:58;;;;;;;9.93;2.03;;;;;;;;;;5027093;28;20214;-68
2022/09/19 09:35:29;;;;;;;9.40;1.75;;;;;;;;;;5026613;28;20318;-69
2022/09/19 09:38:00;;;;;;;9.90;1.40;;;;;;;;;;5026669;28;20773;-71
2022/09/19 09:43:17;;;;;;;4.93;0.93;;;;;;;;;;5026097;28;20246;-72
2022/09/19 09:45:44;;;;;;;5.57;1.40;;;;;;;;;;5028332;28;20219;-75
2022/09/19 09:48:15;;;;;;;5.88;1.05;;;;;;;;;;5027899;28;20640;-72
2022/09/19 09:50:46;;;;;;;5.75;0.75;;;;;;;;;;5027657;28;20200;-75
2022/09/19 09:53:23;;;;;;;4.85;0.80;;;;;;;;;;5045249;28;20219;-75
2022/09/19 09:58:49;;;;;;;5.32;1.05;;;;;;;;;;5007739;28;20308;-74
2022/09/19 10:04:07;;;;;;;3.58;0.80;;;;;;;;;;5007359;28;20715;-75
2022/09/19 10:06:53;;;;;;;4.53;0.70;;;;;;;;;;5008006;28;20236;-75
2022/09/19 10:09:21;;;;;;;5.63;1.08;;;;;;;;;;5008106;28;20454;-75
2022/09/19 10:11:52;;;;;;;5.05;0.85;;;;;;;;;;5015202;28;20231;-75
2022/09/19 10:14:19;;;;;;;2.92;0.60;;;;;;;;;;5006463;28;20235;-77
2022/09/19 10:16:46;;;;;;;5.00;0.80;;;;;;;;;;5026161;28;20220;-78
2022/09/19 10:19:14;;;;;;;4.50;1.02;;;;;;;;;;5027225;28;20211;-77
2022/09/19 10:21:40;;;;;;;5.60;0.90;;;;;;;;;;5026498;28;20691;-77
2022/09/19 10:24:23;;;;;;;3.45;1.02;;;;;;;;;;5022938;28;20700;-77
2022/09/19 10:26:49;;;;;;;3.38;0.80;;;;;;;;;;5007384;28;20698;-74
2022/09/19 10:29:20;;;;;;;4.85;0.82;;;;;;;;;;5010553;28;20291;-71
2022/09/19 10:31:46;;;;;;;3.33;0.70;;;;;;;;;;5025495;28;20208;-72
2022/09/19 10:34:24;;;;;;;3.53;0.75;;;;;;;;;;5027266;28;20224;-70
2022/09/19 10:36:49;;;;;;;5.00;0.90;;;;;;;;;;5026188;28;20214;-71
2022/09/19 10:39:14;;;;;;;6.40;1.00;;;;;;;;;;5026147;28;20212;-71
2022/09/19 10:41:40;;;;;;;5.00;0.90;;;;;;;;;;5027856;28;20203;-71
2022/09/19 10:44:13;;;;;;;5.72;1.35;;;;;;;;;;5025431;28;20323;-71
2022/09/19 10:46:43;;;;;;;5.78;1.20;;;;;;;;;;5023828;28;20270;-72
2022/09/19 10:49:18;;;;;;;6.38;1.05;;;;;;;;;;5025479;28;20694;-69
2022/09/19 10:51:44;;;;;;;6.63;0.93;;;;;;;;;;5031720;28;20226;-71
2022/09/19 10:54:11;;;;;;;5.95;0.95;;;;;;;;;;5045737;28;20316;-78
2022/09/19 10:56:39;;;;;;;3.42;0.80;;;;;;;;;;5020085;28;20204;-70
2022/09/19 10:59:06;;;;;;;3.30;0.73;;;;;;;;;;4998924;28;20215;-71
2022/09/19 11:01:31;;;;;;;3.70;0.82;;;;;;;;;;5028830;28;20212;-73
2022/09/19 11:03:57;;;;;;;4.35;0.80;;;;;;;;;;5030916;28;20889;-74
2022/09/19 11:06:23;;;;;;;3.63;0.70;;;;;;;;;;5011483;28;20736;-71
2022/09/19 11:08:49;;;;;;;5.22;0.90;;;;;;;;;;5000121;28;20220;-71
2022/09/19 11:11:25;;;;;;;4.43;0.90;;;;;;;;;;5020224;28;20289;-70
2022/09/19 11:14:07;;;;;;;4.15;0.60;;;;;;;;;;5017234;28;20215;-71
2022/09/19 11:16:38;;;;;;;3.22;0.70;;;;;;;;;;5020322;28;20208;-71
2022/09/19 11:19:14;;;;;;;3.28;0.65;;;;;;;;;;5035305;28;20218;-69
2022/09/19 11:21:45;;;;;;;3.53;0.60;;;;;;;;;;5028950;28;20215;-70
2022/09/19 11:24:15;;;;;;;5.03;0.70;;;;;;;;;;5013541;28;20542;-71
2022/09/19 11:26:45;;;;;;;3.70;0.57;;;;;;;;;;5031166;28;20215;-70
2022/09/19 11:29:17;;;;;;;3.17;0.52;;;;;;;;;;5035122;28;20215;-70
2022/09/19 11:32:07;;;;;;;5.13;0.70;;;;;;;;;;5028471;28;21028;-70
2022/09/19 11:34:36;;;;;;;4.60;0.70;;;;;;;;;;5034677;28;20212;-70
2022/09/19 11:37:20;;;;;;;3.42;0.85;;;;;;;;;;5000840;28;20205;-67
2022/09/19 11:39:51;;;;;;;3.60;0.73;;;;;;;;;;5035452;28;20276;-71
2022/09/19 11:42:42;;;;;;;6.00;0.77;;;;;;;;;;5017391;28;20220;-72
2022/09/19 11:45:07;;;;;;;4.78;0.60;;;;;;;;;;5013425;28;20266;-70
2022/09/19 11:47:34;;;;;;;3.15;0.70;;;;;;;;;;5014294;28;20219;-70
2022/09/19 11:50:10;;;;;;;4.80;0.63;;;;;;;;;;5016033;28;20219;-71
2022/09/19 11:52:42;;;;;;;4.65;0.70;;;;;;;;;;5023198;28;20222;-72
2022/09/19 11:55:11;;;;;;;4.97;1.05;;;;;;;;;;5020862;28;20574;-69
2022/09/19 11:57:39;;;;;;;6.28;0.90;;;;;;;;;;5011069;28;20221;-70
2022/09/19 12:00:07;;;;;;;4.22;0.80;;;;;;;;;;5003246;28;20212;-71
2022/09/19 12:02:45;;;;;;;11.27;1.55;;;;;;;;;;5035791;28;20695;-71
2022/09/19 12:05:20;;;;;;;5.13;0.70;;;;;;;;;;5031058;28;20853;-72
2022/09/19 12:08:02;;;;;;;6.97;0.77;;;;;;;;;;5013075;28;20900;-72
2022/09/19 12:10:31;;;;;;;5.22;0.77;;;;;;;;;;5028462;28;20219;-73
2022/09/19 12:13:03;;;;;;;3.50;0.80;;;;;;;;;;5005234;28;20235;-72
2022/09/19 12:15:29;;;;;;;5.18;0.90;;;;;;;;;;5016927;28;20286;-72
2022/09/19 12:18:03;;;;;;;3.22;0.65;;;;;;;;;;5022264;28;20208;-71
2022/09/19 12:20:32;;;;;;;2.78;0.70;;;;;;;;;;5020670;28;20203;-71
2022/09/19 12:22:57;;;;;;;3.17;0.65;;;;;;;;;;5020417;28;20215;-71
2022/09/19 12:25:24;;;;;;;2.50;0.40;;;;;;;;;;5016073;28;20231;-71
2022/09/19 12:27:51;;;;;;;2.35;0.40;;;;;;;;;;5027319;28;20217;-72
2022/09/19 12:30:18;;;;;;;2.33;0.50;;;;;;;;;;5011020;28;20235;-70
2022/09/19 12:32:48;;;;;;;3.38;0.60;;;;;;;;;;5031561;28;20965;-71
2022/09/19 12:35:16;;;;;;;3.22;0.70;;;;;;;;;;5019364;28;20277;-70
2022/09/19 12:37:46;;;;;;;3.45;0.55;;;;;;;;;;5023932;28;20208;-70
2022/09/19 12:40:11;;;;;;;3.22;0.50;;;;;;;;;;5022954;28;20230;-70
2022/09/19 12:42:45;;;;;;;3.17;0.60;;;;;;;;;;5023537;28;20224;-72
2022/09/19 12:45:18;;;;;;;2.72;0.50;;;;;;;;;;5022997;28;20635;-70
2022/09/19 12:47:56;;;;;;;3.53;0.70;;;;;;;;;;5038938;28;20641;-73
2022/09/19 12:50:29;;;;;;;3.17;0.70;;;;;;;;;;5032996;28;20251;-74
2022/09/19 12:53:11;;;;;;;3.00;0.40;;;;;;;;;;5011847;28;20565;-71
2022/09/19 12:55:39;;;;;;;5.03;0.60;;;;;;;;;;5031596;28;20625;-71
2022/09/19 12:58:06;;;;;;;4.85;0.63;;;;;;;;;;5019550;28;20204;-69
2022/09/19 13:00:35;;;;;;;5.00;0.80;;;;;;;;;;5034126;28;20622;-68
2022/09/19 13:03:04;;;;;;;5.88;0.70;;;;;;;;;;5023056;28;20212;-68
2022/09/19 13:05:34;;;;;;;5.18;0.73;;;;;;;;;;5008282;28;20219;-68
2022/09/19 13:08:00;;;;;;;3.53;0.65;;;;;;;;;;5022732;28;20208;-68
2022/09/19 13:10:27;;;;;;;3.78;0.52;;;;;;;;;;5023070;28;20207;-69
2022/09/19 13:12:57;;;;;;;4.78;0.75;;;;;;;;;;5025968;28;20215;-68
2022/09/19 13:15:29;;;;;;;4.72;0.60;;;;;;;;;;5014854;28;20273;-69
2022/09/19 13:23:32;;;;;;;2.05;0.50;;;;;;;;;;5003582;28;20290;-69
2022/09/19 13:26:19;;;;;;;2.15;0.38;;;;;;;;;;5037383;28;20684;-70
2022/09/19 13:28:49;;;;;;;2.42;0.50;;;;;;;;;;5022266;28;20216;-69
2022/09/19 13:31:17;;;;;;;2.55;0.32;;;;;;;;;;5022728;28;20374;-68
2022/09/19 13:33:44;;;;;;;1.10;0.30;;;;;;;;;;5005260;28;20583;-69
2022/09/19 13:36:10;;;;;;;0.88;0.40;;;;;;;;;;5004478;28;20516;-69
2022/09/19 13:38:37;;;;;;;2.22;0.57;;;;;;;;;;4997148;28;20746;-69
2022/09/19 13:41:04;;;;;;;4.15;0.95;;;;;;;;;;4996793;28;20711;-68
2022/09/19 13:43:33;;;;;;;2.28;0.32;;;;;;;;;;4998359;28;20239;-68
2022/09/19 13:46:01;;;;;;;2.25;0.50;;;;;;;;;;5005751;28;20267;-68
2022/09/19 13:48:27;;;;;;;3.72;0.60;;;;;;;;;;5022055;28;20222;-68
2022/09/19 13:50:54;;;;;;;3.08;0.70;;;;;;;;;;5004377;28;20217;-69
2022/09/19 13:53:30;;;;;;;4.82;0.65;;;;;;;;;;5018611;28;20422;-67
2022/09/19 13:55:59;;;;;;;3.85;0.60;;;;;;;;;;5021382;28;20203;-68
2022/09/19 13:58:31;;;;;;;2.65;0.63;;;;;;;;;;5003069;28;20295;-68
2022/09/19 14:01:06;;;;;;;3.35;0.65;;;;;;;;;;5014942;28;20223;-67
2022/09/19 14:03:32;;;;;;;4.25;0.68;;;;;;;;;;5014882;28;20214;-68
2022/09/19 14:06:20;;;;;;;3.33;0.73;;;;;;;;;;5025525;28;20244;-68
2022/09/19 14:08:46;;;;;;;3.75;0.63;;;;;;;;;;5037317;28;20230;-68
2022/09/19 14:11:12;;;;;;;3.55;0.80;;;;;;;;;;5036551;28;20216;-68
2022/09/19 14:13:37;;;;;;;4.25;0.73;;;;;;;;;;5004272;28;20208;-67
2022/09/19 14:16:05;;;;;;;4.70;0.77;;;;;;;;;;5002952;28;20204;-67
2022/09/19 14:18:36;;;;;;;7.68;0.70;;;;;;;;;;5019709;28;20279;-67
2022/09/19 14:21:06;;;;;;;5.18;1.08;;;;;;;;;;5019645;28;20226;-66
2022/09/19 14:23:32;;;;;;;3.42;0.68;;;;;;;;;;5014811;28;20619;-66
2022/09/19 14:26:01;;;;;;;5.32;0.50;;;;;;;;;;5014733;28;20290;-66
2022/09/19 14:28:27;;;;;;;4.57;0.70;;;;;;;;;;5001034;28;20212;-67
2022/09/19 14:30:57;;;;;;;2.45;0.50;;;;;;;;;;5002624;28;20596;-67
2022/09/19 14:33:41;;;;;;;4.97;0.73;;;;;;;;;;5033068;28;20302;-66
2022/09/19 14:36:16;;;;;;;4.30;0.73;;;;;;;;;;5002547;28;20212;-66
2022/09/19 14:38:45;;;;;;;4.00;0.65;;;;;;;;;;5006211;28;20675;-67
2022/09/19 14:41:11;;;;;;;4.13;0.73;;;;;;;;;;5035975;28;20714;-67
2022/09/19 14:43:36;;;;;;;3.65;0.50;;;;;;;;;;4999925;28;20403;-66
2022/09/19 14:46:08;;;;;;;5.30;0.70;;;;;;;;;;4993837;28;20267;-66
2022/09/19 14:48:37;;;;;;;6.03;0.80;;;;;;;;;;5014656;28;20289;-66
2022/09/19 14:51:16;;;;;;;5.03;0.77;;;;;;;;;;5017075;28;20609;-66
2022/09/19 14:53:42;;;;;;;4.20;0.75;;;;;;;;;;5014914;28;20235;-66
2022/09/19 14:56:11;;;;;;;4.75;0.70;;;;;;;;;;5021205;28;20269;-65
2022/09/19 14:58:37;;;;;;;4.28;0.70;;;;;;;;;;5026289;28;20207;-65
2022/09/19 15:01:06;;;;;;;3.92;0.80;;;;;;;;;;5026285;28;20216;-65
2022/09/19 15:03:53;;;;;;;3.05;0.60;;;;;;;;;;5028007;28;20283;-66